Carland, Michigan
Current Conditions -  °F | °C
As of 10:35 PM on Saturday 24 Jan 2015 (Local Time) from KRNP Reporting Station
Broken Clouds Broken Clouds  
Wind Chill: 30°   Ceiling: 9000
Heat Index: 34°   Visibility: 7mi
Dew Point: 33°   Wind: 5mph
Humidity: 97%   Direction: 260°W
Pressure: 29.65"   Gusts: NA
Location:  43.0981°N, 84.3788°W
Report Text: KRNP 250335Z AUTO 26004KT 7SM SCT039 BKN090 01/01 A2965 RMK AO2 T00110007
Loading
Personal Weather Stations






























Interactive Weather Map New forecast layout! Learn more

10-Day Weather Forecast

Advertisements
Track Severe Weather on mobile